createdAt,value
2018-06-16T00:00:54.961Z,0
2018-06-16T00:01:55.635Z,0
2018-06-16T00:02:56.312Z,0
2018-06-16T00:03:57.231Z,0
2018-06-16T00:04:57.925Z,0
2018-06-16T00:05:58.599Z,0
2018-06-16T00:06:59.330Z,0
2018-06-16T00:08:00.064Z,0
2018-06-16T00:09:00.731Z,0
2018-06-16T00:10:01.411Z,0
2018-06-16T00:11:02.097Z,0
2018-06-16T00:12:02.768Z,0
2018-06-16T00:13:03.559Z,0
2018-06-16T00:14:04.235Z,0
2018-06-16T00:15:04.907Z,0
2018-06-16T00:16:05.584Z,0
2018-06-16T00:17:06.262Z,0
2018-06-16T00:18:06.943Z,0
2018-06-16T00:19:07.872Z,0
2018-06-16T00:20:08.539Z,0
2018-06-16T00:21:09.210Z,0
2018-06-16T00:22:09.890Z,0
2018-06-16T00:23:10.575Z,0
2018-06-16T00:24:11.247Z,0
2018-06-16T00:25:11.927Z,0
2018-06-16T00:26:12.591Z,0
2018-06-16T00:27:13.267Z,0
2018-06-16T00:28:13.951Z,0
2018-06-16T00:29:14.638Z,0
2018-06-16T00:30:15.571Z,0
2018-06-16T00:31:16.346Z,0
2018-06-16T00:32:17.017Z,0
2018-06-16T00:33:17.718Z,0
2018-06-16T00:34:18.393Z,0
2018-06-16T00:35:19.070Z,0
2018-06-16T00:36:19.736Z,0
2018-06-16T00:37:20.423Z,0
2018-06-16T00:38:21.106Z,0
2018-06-16T00:39:21.788Z,0
2018-06-16T00:40:22.462Z,0
2018-06-16T00:41:23.185Z,0
2018-06-16T00:42:23.819Z,0
2018-06-16T00:43:24.486Z,0
2018-06-16T00:44:25.154Z,0
2018-06-16T00:45:26.071Z,0
2018-06-16T00:46:26.896Z,0
2018-06-16T00:47:27.585Z,0
2018-06-16T00:48:28.266Z,0
2018-06-16T00:49:28.952Z,0
2018-06-16T00:50:29.614Z,0
2018-06-16T00:51:30.697Z,0
2018-06-16T00:52:31.359Z,0
2018-06-16T00:53:32.140Z,0
2018-06-16T00:54:32.814Z,0
2018-06-16T00:55:33.567Z,0
2018-06-16T00:56:34.313Z,0
2018-06-16T00:57:35.163Z,0
2018-06-16T00:58:35.843Z,0
2018-06-16T00:59:36.633Z,0
2018-06-16T01:00:37.385Z,0
2018-06-16T01:01:38.190Z,0
2018-06-16T01:02:38.900Z,0
2018-06-16T01:03:39.604Z,0
2018-06-16T01:04:40.316Z,0
2018-06-16T01:05:41.020Z,0
2018-06-16T01:06:41.756Z,0
2018-06-16T01:07:42.558Z,0
2018-06-16T01:08:43.299Z,0
2018-06-16T01:09:44.118Z,0
2018-06-16T01:10:44.846Z,0
2018-06-16T01:11:45.625Z,0
2018-06-16T01:12:46.390Z,0
2018-06-16T01:13:47.425Z,0
2018-06-16T01:14:48.157Z,0
2018-06-16T01:15:49.393Z,0
2018-06-16T01:16:57.118Z,0
2018-06-16T01:17:57.792Z,0
2018-06-16T01:18:58.461Z,0
2018-06-16T01:19:59.230Z,0
2018-06-16T01:20:59.911Z,0
2018-06-16T01:22:00.591Z,0
2018-06-16T01:23:01.254Z,0
2018-06-16T01:24:01.932Z,0
2018-06-16T01:25:02.608Z,0
2018-06-16T01:26:03.296Z,0
2018-06-16T01:27:03.975Z,0
2018-06-16T01:28:04.696Z,0
2018-06-16T01:29:05.395Z,0
2018-06-16T01:30:06.069Z,0
2018-06-16T01:31:06.738Z,0
2018-06-16T01:32:07.424Z,0
2018-06-16T01:33:08.193Z,0
2018-06-16T01:34:09.116Z,0
2018-06-16T01:35:10.045Z,0
2018-06-16T01:36:10.708Z,0
2018-06-16T01:37:11.386Z,0
2018-06-16T01:38:12.154Z,0
2018-06-16T01:39:12.829Z,0
2018-06-16T01:40:13.517Z,0
2018-06-16T01:41:14.191Z,0
2018-06-16T01:42:14.871Z,0
2018-06-16T01:43:15.560Z,0
2018-06-16T01:44:16.237Z,0
2018-06-16T01:45:16.975Z,0
2018-06-16T01:46:17.649Z,0
2018-06-16T01:47:18.329Z,0
2018-06-16T01:48:19.000Z,0
2018-06-16T01:49:19.666Z,0
2018-06-16T01:50:20.364Z,0
2018-06-16T01:51:21.050Z,0
2018-06-16T01:52:21.708Z,0
2018-06-16T01:53:22.398Z,0
2018-06-16T01:54:23.060Z,0
2018-06-16T01:55:23.730Z,0
2018-06-16T01:56:24.408Z,0
2018-06-16T01:57:25.080Z,0
2018-06-16T01:58:25.760Z,0
2018-06-16T01:59:26.681Z,0
2018-06-16T02:00:27.372Z,0
2018-06-16T02:01:28.204Z,0
2018-06-16T02:02:28.879Z,0
2018-06-16T02:03:29.558Z,0
2018-06-16T02:04:30.231Z,0
2018-06-16T02:05:30.916Z,0
2018-06-16T02:06:31.694Z,0
2018-06-16T02:07:32.371Z,0
2018-06-16T02:08:33.042Z,0
2018-06-16T02:09:33.734Z,0
2018-06-16T02:10:34.396Z,0
2018-06-16T02:11:35.172Z,0
2018-06-16T02:12:35.869Z,0
2018-06-16T02:13:36.536Z,0
2018-06-16T02:14:37.215Z,0
2018-06-16T02:15:38.135Z,0
2018-06-16T02:16:38.818Z,0
2018-06-16T02:17:39.501Z,0
2018-06-16T02:18:40.169Z,0
2018-06-16T02:19:40.851Z,0
2018-06-16T02:20:41.525Z,0
2018-06-16T02:21:42.205Z,0
2018-06-16T02:22:43.127Z,0
2018-06-16T02:23:43.826Z,0
2018-06-16T02:24:44.498Z,0
2018-06-16T02:25:45.176Z,4
2018-06-16T02:26:46.100Z,4
2018-06-16T02:27:46.774Z,4
2018-06-16T02:28:47.440Z,4
2018-06-16T02:29:48.119Z,4
2018-06-16T02:30:48.791Z,4
2018-06-16T02:31:49.456Z,0
2018-06-16T02:32:50.140Z,4
2018-06-16T02:33:50.816Z,4
2018-06-16T02:34:51.548Z,4
2018-06-16T02:35:52.223Z,4
2018-06-16T02:36:52.911Z,4
2018-06-16T02:37:53.585Z,8
2018-06-16T02:38:54.258Z,4
2018-06-16T02:39:54.941Z,4
2018-06-16T02:40:55.614Z,8
2018-06-16T02:41:56.291Z,8
2018-06-16T02:42:56.960Z,4
2018-06-16T02:43:57.975Z,8
2018-06-16T02:44:58.657Z,8
2018-06-16T02:45:59.343Z,12
2018-06-16T02:47:00.013Z,12
2018-06-16T02:48:00.688Z,12
2018-06-16T02:49:01.384Z,16
2018-06-16T02:50:02.055Z,16
2018-06-16T02:51:02.789Z,24
2018-06-16T02:52:03.466Z,28
2018-06-16T02:53:04.142Z,32
2018-06-16T02:54:04.824Z,40
2018-06-16T02:55:05.488Z,48
2018-06-16T02:56:06.230Z,60
2018-06-16T02:57:06.897Z,72
2018-06-16T02:58:07.581Z,88
2018-06-16T02:59:08.275Z,100
2018-06-16T03:00:09.204Z,112
2018-06-16T03:01:09.928Z,124
2018-06-16T03:02:10.613Z,140
2018-06-16T03:03:11.350Z,156
2018-06-16T03:04:11.964Z,176
2018-06-16T03:05:12.639Z,196
2018-06-16T03:06:13.337Z,220
2018-06-16T03:07:14.004Z,248
2018-06-16T03:08:14.739Z,276
2018-06-16T03:09:15.424Z,308
2018-06-16T03:10:16.100Z,340
2018-06-16T03:11:16.786Z,376
2018-06-16T03:12:17.462Z,412
2018-06-16T03:13:18.186Z,456
2018-06-16T03:14:18.868Z,508
2018-06-16T03:15:19.534Z,556
2018-06-16T03:16:20.206Z,608
2018-06-16T03:17:20.890Z,652
2018-06-16T03:18:21.726Z,696
2018-06-16T03:19:22.408Z,732
2018-06-16T03:20:23.091Z,772
2018-06-16T03:21:24.011Z,804
2018-06-16T03:22:24.940Z,840
2018-06-16T03:23:25.666Z,880
2018-06-16T03:24:26.288Z,928
2018-06-16T03:25:26.968Z,972
2018-06-16T03:26:27.644Z,1016
2018-06-16T03:27:28.342Z,1052
2018-06-16T03:28:29.026Z,1076
2018-06-16T03:29:29.703Z,1104
2018-06-16T03:30:30.381Z,1148
2018-06-16T03:31:31.068Z,1200
2018-06-16T03:32:32.010Z,1252
2018-06-16T03:33:32.691Z,1304
2018-06-16T03:34:33.629Z,1348
2018-06-16T03:35:34.304Z,1388
2018-06-16T03:36:35.238Z,1432
2018-06-16T03:37:35.893Z,1492
2018-06-16T03:38:36.580Z,1572
2018-06-16T03:39:37.252Z,1660
2018-06-16T03:40:37.933Z,1740
2018-06-16T03:41:38.615Z,1792
2018-06-16T03:42:39.291Z,1812
2018-06-16T03:43:39.972Z,1804
2018-06-16T03:44:40.650Z,1804
2018-06-16T03:45:41.336Z,1836
2018-06-16T03:46:42.054Z,1884
2018-06-16T03:47:42.762Z,1920
2018-06-16T03:48:43.439Z,1936
2018-06-16T03:49:44.112Z,1956
2018-06-16T03:50:44.807Z,2008
2018-06-16T03:51:45.500Z,2068
2018-06-16T03:52:46.169Z,2156
2018-06-16T03:53:46.904Z,2228
2018-06-16T03:54:47.576Z,2308
2018-06-16T03:55:48.273Z,2372
2018-06-16T03:56:48.955Z,2436
2018-06-16T03:57:49.633Z,2480
2018-06-16T03:58:50.324Z,2532
2018-06-16T03:59:51.008Z,2592
2018-06-16T04:00:51.686Z,2664
2018-06-16T04:01:52.363Z,2736
2018-06-16T04:02:53.030Z,2792
2018-06-16T04:03:53.707Z,2852
2018-06-16T04:04:54.395Z,2904
2018-06-16T04:05:55.068Z,2960
2018-06-16T04:06:55.755Z,3020
2018-06-16T04:07:56.449Z,3092
2018-06-16T04:08:57.125Z,3176
2018-06-16T04:09:58.048Z,3272
2018-06-16T04:10:58.780Z,3384
2018-06-16T04:11:59.453Z,3496
2018-06-16T04:13:00.128Z,3620
2018-06-16T04:14:01.058Z,3748
2018-06-16T04:15:01.743Z,3896
2018-06-16T04:16:02.543Z,4116
2018-06-16T04:17:03.219Z,4388
2018-06-16T04:18:03.909Z,4684
2018-06-16T04:19:04.578Z,4860
2018-06-16T04:20:05.270Z,4884
2018-06-16T04:21:06.097Z,4784
2018-06-16T04:22:06.794Z,4668
2018-06-16T04:23:07.482Z,4584
2018-06-16T04:24:08.156Z,4528
2018-06-16T04:25:08.830Z,4604
2018-06-16T04:26:09.563Z,4796
2018-06-16T04:27:10.258Z,5036
2018-06-16T04:28:10.936Z,5284
2018-06-16T04:29:11.606Z,5540
2018-06-16T04:30:12.297Z,5820
2018-06-16T04:31:12.977Z,6148
2018-06-16T04:32:13.659Z,6500
2018-06-16T04:33:14.352Z,6820
2018-06-16T04:34:15.015Z,7092
2018-06-16T04:35:15.690Z,7316
2018-06-16T04:36:16.356Z,7488
2018-06-16T04:37:17.032Z,7572
2018-06-16T04:38:17.824Z,7640
2018-06-16T04:39:18.498Z,7644
2018-06-16T04:40:19.175Z,7556
2018-06-16T04:41:20.096Z,7340
2018-06-16T04:42:20.779Z,7032
2018-06-16T04:43:21.464Z,6696
2018-06-16T04:44:22.141Z,6316
2018-06-16T04:45:22.822Z,5940
2018-06-16T04:46:23.657Z,5584
2018-06-16T04:47:24.350Z,5368
2018-06-16T04:48:25.020Z,5256
2018-06-16T04:49:25.749Z,5196
2018-06-16T04:50:26.681Z,5108
2018-06-16T04:51:27.367Z,5008
2018-06-16T04:52:28.047Z,4952
2018-06-16T04:53:28.726Z,4928
2018-06-16T04:54:29.415Z,4936
2018-06-16T04:55:30.098Z,4964
2018-06-16T04:56:30.931Z,4960
2018-06-16T04:57:31.595Z,4892
2018-06-16T04:58:32.279Z,4780
2018-06-16T04:59:32.972Z,4612
2018-06-16T05:00:33.642Z,4392
2018-06-16T05:01:34.617Z,4136
2018-06-16T05:02:35.296Z,3848
2018-06-16T05:03:36.221Z,3544
2018-06-16T05:04:37.152Z,3320
2018-06-16T05:05:37.837Z,3216
2018-06-16T05:06:38.621Z,3192
2018-06-16T05:07:39.312Z,3160
2018-06-16T05:08:40.064Z,3124
2018-06-16T05:09:40.673Z,3056
2018-06-16T05:10:41.352Z,2996
2018-06-16T05:11:42.033Z,2912
2018-06-16T05:12:42.706Z,2796
2018-06-16T05:13:43.384Z,2644
2018-06-16T05:14:44.065Z,2516
2018-06-16T05:15:44.747Z,2448
2018-06-16T05:16:45.723Z,2448
2018-06-16T05:17:46.420Z,2492
2018-06-16T05:18:47.113Z,2480
2018-06-16T05:19:47.791Z,2424
2018-06-16T05:20:48.463Z,2384
2018-06-16T05:21:49.316Z,2324
2018-06-16T05:22:49.971Z,2256
2018-06-16T05:23:50.649Z,2184
2018-06-16T05:24:51.332Z,2072
2018-06-16T05:25:52.008Z,1992
2018-06-16T05:26:52.691Z,1972
2018-06-16T05:27:53.368Z,2008
2018-06-16T05:28:54.098Z,2116
2018-06-16T05:29:54.774Z,2304
2018-06-16T05:30:55.456Z,2572
2018-06-16T05:31:56.135Z,2844
2018-06-16T05:32:56.824Z,2984
2018-06-16T05:33:57.557Z,3012
2018-06-16T05:34:58.479Z,2988
2018-06-16T05:35:59.147Z,3016
2018-06-16T05:36:59.834Z,3168
2018-06-16T05:38:00.520Z,3352
2018-06-16T05:39:01.199Z,3568
2018-06-16T05:40:02.040Z,3924
2018-06-16T05:41:02.720Z,4452
2018-06-16T05:42:03.651Z,5116
2018-06-16T05:43:04.324Z,5948
2018-06-16T05:44:05.015Z,6940
2018-06-16T05:45:05.703Z,8040
2018-06-16T05:46:06.388Z,8848
2018-06-16T05:47:07.059Z,9260
2018-06-16T05:48:07.731Z,9300
2018-06-16T05:49:08.430Z,9224
2018-06-16T05:50:09.206Z,9132
2018-06-16T05:51:09.896Z,9200
2018-06-16T05:52:10.563Z,9428
2018-06-16T05:53:11.247Z,9776
2018-06-16T05:54:11.944Z,10232
2018-06-16T05:55:12.764Z,10752
2018-06-16T05:56:13.694Z,11316
2018-06-16T05:57:14.625Z,11720
2018-06-16T05:58:15.317Z,12076
2018-06-16T05:59:16.010Z,12520
2018-06-16T06:00:16.680Z,13112
2018-06-16T06:01:17.608Z,13772
2018-06-16T06:02:18.351Z,14448
2018-06-16T06:03:19.025Z,15124
2018-06-16T06:04:19.715Z,15896
2018-06-16T06:05:20.657Z,16640
2018-06-16T06:06:21.332Z,17252
2018-06-16T06:07:22.014Z,18080
2018-06-16T06:08:22.685Z,18400
2018-06-16T06:09:23.379Z,18560
2018-06-16T06:10:24.076Z,20608
2018-06-16T06:11:24.760Z,19328
2018-06-16T06:12:25.440Z,20320
2018-06-16T06:13:26.116Z,21280
2018-06-16T06:14:26.798Z,20064
2018-06-16T06:15:27.472Z,19552
2018-06-16T06:16:28.156Z,19328
2018-06-16T06:17:28.840Z,19648
2018-06-16T06:18:29.513Z,20256
2018-06-16T06:19:30.195Z,21536
2018-06-16T06:20:30.890Z,20064
2018-06-16T06:21:31.591Z,19648
2018-06-16T06:22:32.266Z,18112
2018-06-16T06:23:32.953Z,17600
2018-06-16T06:24:33.641Z,19104
2018-06-16T06:25:34.325Z,17728
2018-06-16T06:26:35.019Z,17440
2018-06-16T06:27:35.698Z,17536
2018-06-16T06:28:36.377Z,17728
2018-06-16T06:29:37.065Z,17824
2018-06-16T06:30:37.751Z,17632
2018-06-16T06:31:38.436Z,18048
2018-06-16T06:32:39.140Z,18816
2018-06-16T06:33:39.850Z,19072
2018-06-16T06:34:40.502Z,18944
2018-06-16T06:35:41.195Z,20672
2018-06-16T06:36:41.874Z,20096
2018-06-16T06:37:42.563Z,20000
2018-06-16T06:38:43.299Z,20000
2018-06-16T06:39:43.980Z,20640
2018-06-16T06:40:44.658Z,22560
2018-06-16T06:41:45.337Z,22944
2018-06-16T06:42:46.019Z,25408
2018-06-16T06:43:46.709Z,24224
2018-06-16T06:44:47.454Z,24960
2018-06-16T06:45:48.122Z,24256
2018-06-16T06:46:48.814Z,24384
2018-06-16T06:47:49.496Z,23968
2018-06-16T06:48:50.168Z,23904
2018-06-16T06:49:50.910Z,26240
2018-06-16T06:50:51.604Z,24416
2018-06-16T06:51:52.294Z,23232
2018-06-16T06:52:52.961Z,22752
2018-06-16T06:53:53.660Z,23904
2018-06-16T06:54:54.358Z,22976
2018-06-16T06:55:55.023Z,22944
2018-06-16T06:56:55.703Z,24224
2018-06-16T06:57:56.440Z,23616
2018-06-16T06:58:57.080Z,28384
2018-06-16T06:59:57.761Z,30752
2018-06-16T07:00:58.550Z,33664
2018-06-16T07:01:59.236Z,35968
2018-06-16T07:02:59.924Z,36672
2018-06-16T07:04:00.681Z,37632
2018-06-16T07:05:01.293Z,28064
2018-06-16T07:06:01.979Z,34592
2018-06-16T07:07:02.655Z,27264
2018-06-16T07:08:03.330Z,26144
2018-06-16T07:09:04.015Z,27296
2018-06-16T07:10:04.699Z,34720
2018-06-16T07:11:05.425Z,27808
2018-06-16T07:12:06.255Z,35744
2018-06-16T07:13:07.266Z,31808
2018-06-16T07:14:08.200Z,30208
2018-06-16T07:15:08.880Z,28288
2018-06-16T07:16:09.568Z,29728
2018-06-16T07:17:10.345Z,32032
2018-06-16T07:18:11.038Z,30400
2018-06-16T07:19:11.717Z,33344
2018-06-16T07:20:12.401Z,30784
2018-06-16T07:21:13.096Z,32320
2018-06-16T07:22:13.826Z,31104
2018-06-16T07:23:14.570Z,32352
2018-06-16T07:24:15.797Z,28832
2018-06-16T07:25:16.482Z,30496
2018-06-16T07:26:17.167Z,27296
2018-06-16T07:27:17.851Z,27264
2018-06-16T07:28:18.581Z,30560
2018-06-16T07:29:19.464Z,28384
2018-06-16T07:30:20.270Z,29920
2018-06-16T07:31:20.953Z,36064
2018-06-16T07:32:21.629Z,32640
2018-06-16T07:33:22.330Z,38624
2018-06-16T07:34:22.997Z,35872
2018-06-16T07:35:23.683Z,37376
2018-06-16T07:36:24.367Z,34368
2018-06-16T07:37:25.297Z,40416
2018-06-16T07:38:26.234Z,33024
2018-06-16T07:39:26.909Z,48416
2018-06-16T07:40:27.602Z,36704
2018-06-16T07:41:28.442Z,40288
2018-06-16T07:42:29.061Z,35040
2018-06-16T07:43:29.767Z,35680
2018-06-16T07:44:31.427Z,41824
2018-06-16T07:45:33.306Z,34944
2018-06-16T07:46:35.194Z,47456
2018-06-16T07:47:37.291Z,46464
2018-06-16T07:48:38.268Z,40896
2018-06-16T07:49:38.967Z,48832
2018-06-16T07:50:39.643Z,48928
2018-06-16T07:51:40.341Z,50272
2018-06-16T07:52:41.014Z,47712
2018-06-16T07:53:41.704Z,48736
2018-06-16T07:54:42.394Z,45824
2018-06-16T07:55:43.072Z,45728
2018-06-16T07:56:43.849Z,45664
2018-06-16T07:57:44.450Z,39328
2018-06-16T07:58:45.124Z,36160
2018-06-16T07:59:45.815Z,43328
2018-06-16T08:00:46.502Z,41024
2018-06-16T08:01:47.187Z,37344
2018-06-16T08:02:47.922Z,51744
2018-06-16T08:03:48.665Z,50176
2018-06-16T08:04:49.345Z,55136
2018-06-16T08:05:50.020Z,51744
2018-06-16T08:06:50.713Z,46112
2018-06-16T08:07:51.410Z,53120
2018-06-16T08:08:52.085Z,54304
2018-06-16T08:09:52.770Z,52736
2018-06-16T08:10:53.450Z,54560
2018-06-16T08:11:54.139Z,55712
2018-06-16T08:12:54.885Z,41152
2018-06-16T08:13:55.603Z,50560
2018-06-16T08:14:56.296Z,49376
2018-06-16T08:15:56.976Z,50144
2018-06-16T08:16:57.656Z,51712
2018-06-16T08:17:58.369Z,53920
2018-06-16T08:18:59.099Z,51264
2018-06-16T08:19:59.796Z,53536
2018-06-16T08:21:00.470Z,51136
2018-06-16T08:22:01.158Z,44832
2018-06-16T08:23:01.838Z,42816
2018-06-16T08:24:02.518Z,39680
2018-06-16T08:25:03.208Z,50944
2018-06-16T08:26:03.908Z,48288
2018-06-16T08:27:04.644Z,52800
2018-06-16T08:28:05.350Z,51968
2018-06-16T08:29:06.043Z,45024
2018-06-16T08:30:06.726Z,50720
2018-06-16T08:31:07.422Z,55424
2018-06-16T08:32:08.118Z,51680
2018-06-16T08:33:08.805Z,52672
2018-06-16T08:34:09.497Z,57792
2018-06-16T08:35:10.167Z,55456
2018-06-16T08:36:10.872Z,56384
2018-06-16T08:37:11.543Z,53280
2018-06-16T08:38:12.228Z,53824
2018-06-16T08:39:13.034Z,54592
2018-06-16T08:40:13.709Z,58464
2018-06-16T08:41:14.421Z,55776
2018-06-16T08:42:15.102Z,57888
2018-06-16T08:43:15.823Z,59040
2018-06-16T08:44:16.517Z,61536
2018-06-16T08:45:17.198Z,61600
2018-06-16T08:46:17.888Z,59040
2018-06-16T08:47:18.585Z,53632
2018-06-16T08:48:19.277Z,53792
2018-06-16T08:49:20.116Z,56416
2018-06-16T08:50:20.826Z,60224
2018-06-16T08:51:21.520Z,53568
2018-06-16T08:52:22.214Z,47968
2018-06-16T08:53:22.939Z,44064
2018-06-16T08:54:23.613Z,44096
2018-06-16T08:55:24.373Z,49600
2018-06-16T08:56:24.981Z,61440
2018-06-16T08:57:25.661Z,69984
2018-06-16T08:58:26.600Z,55424
2018-06-16T08:59:27.293Z,62720
2018-06-16T09:00:27.981Z,65504
2018-06-16T09:01:28.680Z,61920
2018-06-16T09:02:29.375Z,57312
2018-06-16T09:03:30.051Z,59872
2018-06-16T09:04:30.734Z,68672
2018-06-16T09:05:31.433Z,68832
2018-06-16T09:06:32.115Z,69760
2018-06-16T09:07:32.804Z,68544
2018-06-16T09:08:33.493Z,66912
2018-06-16T09:09:34.180Z,70112
2018-06-16T09:10:34.869Z,76352
2018-06-16T09:11:35.821Z,77952
2018-06-16T09:12:36.493Z,69696
2018-06-16T09:13:37.184Z,73088
2018-06-16T09:14:37.889Z,82080
2018-06-16T09:15:38.566Z,61184
2018-06-16T09:16:39.256Z,75616
2018-06-16T09:17:39.955Z,69152
2018-06-16T09:18:40.643Z,56864
2018-06-16T09:19:41.344Z,64448
2018-06-16T09:20:42.034Z,58336
2018-06-16T09:21:42.763Z,54240
2018-06-16T09:22:43.501Z,59104
2018-06-16T09:23:44.149Z,56928
2018-06-16T09:24:44.843Z,53984
2018-06-16T09:25:45.529Z,44768
2018-06-16T09:26:46.215Z,48000
2018-06-16T09:27:47.211Z,54464
2018-06-16T09:28:47.883Z,63296
2018-06-16T09:29:48.579Z,58496
2018-06-16T09:30:49.259Z,58688
2018-06-16T09:31:49.961Z,62752
2018-06-16T09:32:50.638Z,64416
2018-06-16T09:33:51.328Z,59552
2018-06-16T09:34:52.018Z,58784
2018-06-16T09:35:52.707Z,61888
2018-06-16T09:36:53.550Z,58336
2018-06-16T09:37:54.239Z,61408
2018-06-16T09:38:54.935Z,60064
2018-06-16T09:39:55.615Z,56608
2018-06-16T09:40:56.317Z,52992
2018-06-16T09:41:57.016Z,51360
2018-06-16T09:42:57.687Z,53856
2018-06-16T09:43:58.370Z,56512
2018-06-16T09:44:59.161Z,56800
2018-06-16T09:45:59.839Z,58016
2018-06-16T09:47:00.518Z,66976
2018-06-16T09:48:01.266Z,64704
2018-06-16T09:49:02.224Z,62304
2018-06-16T09:50:03.159Z,64832
2018-06-16T09:51:03.850Z,62528
2018-06-16T09:52:04.526Z,59584
2018-06-16T09:53:05.559Z,64800
2018-06-16T09:54:06.250Z,57600
2018-06-16T09:55:06.940Z,61120
2018-06-16T09:56:07.614Z,55424
2018-06-16T09:57:08.557Z,54944
2018-06-16T09:58:09.259Z,57088
2018-06-16T09:59:09.956Z,52896
2018-06-16T10:00:10.630Z,54368
2018-06-16T10:01:11.375Z,51616
2018-06-16T10:02:12.063Z,51904
2018-06-16T10:03:12.809Z,56480
2018-06-16T10:04:13.439Z,53920
2018-06-16T10:05:14.142Z,56704
2018-06-16T10:06:14.958Z,57376
2018-06-16T10:07:15.634Z,55552
2018-06-16T10:08:16.316Z,58432
2018-06-16T10:09:17.000Z,62592
2018-06-16T10:10:17.686Z,59680
2018-06-16T10:11:18.413Z,63744
2018-06-16T10:12:19.099Z,69760
2018-06-16T10:13:19.783Z,59040
2018-06-16T10:14:20.466Z,65088
2018-06-16T10:15:21.159Z,67616
2018-06-16T10:16:22.097Z,67392
2018-06-16T10:17:22.786Z,67264
2018-06-16T10:18:23.486Z,69376
2018-06-16T10:19:24.172Z,68512
2018-06-16T10:20:24.870Z,68992
2018-06-16T10:21:25.548Z,66496
2018-06-16T10:22:26.282Z,62656
2018-06-16T10:23:26.969Z,65728
2018-06-16T10:24:27.671Z,66976
2018-06-16T10:25:28.360Z,64224
2018-06-16T10:26:29.049Z,64224
2018-06-16T10:27:29.732Z,58432
2018-06-16T10:28:30.424Z,53792
2018-06-16T10:29:31.112Z,48544
2018-06-16T10:30:31.812Z,43232
2018-06-16T10:31:32.498Z,48480
2018-06-16T10:32:33.241Z,48672
2018-06-16T10:33:34.189Z,37728
2018-06-16T10:34:34.872Z,37152
2018-06-16T10:35:35.563Z,36672
2018-06-16T10:36:36.254Z,36544
2018-06-16T10:37:36.953Z,35808
2018-06-16T10:38:37.638Z,56416
2018-06-16T10:39:38.339Z,39680
2018-06-16T10:40:39.029Z,50560
2018-06-16T10:41:39.713Z,57856
2018-06-16T10:42:40.403Z,55200
2018-06-16T10:43:41.094Z,59232
2018-06-16T10:44:41.798Z,61376
2018-06-16T10:45:42.582Z,60288
2018-06-16T10:46:43.271Z,58784
2018-06-16T10:47:43.974Z,40608
2018-06-16T10:48:44.653Z,38112
2018-06-16T10:49:45.369Z,36448
2018-06-16T10:50:46.062Z,36928
2018-06-16T10:51:46.847Z,69760
2018-06-16T10:52:47.532Z,71744
2018-06-16T10:53:48.229Z,70560
2018-06-16T10:54:48.923Z,74848
2018-06-16T10:55:49.612Z,73088
2018-06-16T10:56:50.589Z,71008
2018-06-16T10:57:51.271Z,65120
2018-06-16T10:58:51.958Z,62368
2018-06-16T10:59:52.644Z,56608
2018-06-16T11:00:53.335Z,63936
2018-06-16T11:01:54.121Z,65376
2018-06-16T11:02:54.820Z,65024
2018-06-16T11:03:55.500Z,65696
2018-06-16T11:04:56.185Z,41344
2018-06-16T11:05:57.139Z,40064
2018-06-16T11:06:57.818Z,36384
2018-06-16T11:07:58.505Z,38304
2018-06-16T11:08:59.200Z,40512
2018-06-16T11:09:59.889Z,40096
2018-06-16T11:11:00.579Z,42816
2018-06-16T11:12:01.257Z,40544
2018-06-16T11:13:02.253Z,50784
2018-06-16T11:14:02.945Z,53760
2018-06-16T11:15:03.635Z,60128
2018-06-16T11:16:04.322Z,62112
2018-06-16T11:17:05.016Z,61856
2018-06-16T11:18:05.747Z,60320
2018-06-16T11:19:06.493Z,53344
2018-06-16T11:20:07.123Z,52288
2018-06-16T11:21:07.823Z,49888
2018-06-16T11:22:08.508Z,55552
2018-06-16T11:23:09.243Z,58144
2018-06-16T11:24:09.931Z,62368
2018-06-16T11:25:10.612Z,60640
2018-06-16T11:26:11.544Z,48832
2018-06-16T11:27:12.234Z,38816
2018-06-16T11:28:12.928Z,38592
2018-06-16T11:29:13.607Z,55680
2018-06-16T11:30:14.288Z,60192
2018-06-16T11:31:14.975Z,58336
2018-06-16T11:32:15.669Z,55520
2018-06-16T11:33:16.355Z,38688
2018-06-16T11:34:17.055Z,36960
2018-06-16T11:35:17.753Z,53184
2018-06-16T11:36:18.695Z,54144
2018-06-16T11:37:19.383Z,55072
2018-06-16T11:38:20.067Z,56576
2018-06-16T11:39:20.751Z,49696
2018-06-16T11:40:21.445Z,58304
2018-06-16T11:41:22.176Z,61984
2018-06-16T11:42:22.863Z,66624
2018-06-16T11:43:23.549Z,68576
2018-06-16T11:44:24.216Z,72064
2018-06-16T11:45:24.925Z,65088
2018-06-16T11:46:25.716Z,74752
2018-06-16T11:47:26.660Z,70016
2018-06-16T11:48:27.357Z,64640
2018-06-16T11:49:28.052Z,68896
2018-06-16T11:50:28.728Z,71712
2018-06-16T11:51:29.420Z,76512
2018-06-16T11:52:30.101Z,81312
2018-06-16T11:53:30.788Z,78208
2018-06-16T11:54:31.480Z,72864
2018-06-16T11:55:32.446Z,87520
2018-06-16T11:56:33.125Z,79776
2018-06-16T11:57:34.069Z,83232
2018-06-16T11:58:34.745Z,83360
2018-06-16T11:59:35.428Z,79104
2018-06-16T12:00:36.123Z,76704
2018-06-16T12:01:36.814Z,77088
2018-06-16T12:02:37.498Z,76640
2018-06-16T12:03:38.431Z,41344
2018-06-16T12:04:39.159Z,33728
2018-06-16T12:05:39.850Z,35072
2018-06-16T12:06:40.537Z,62752
2018-06-16T12:07:41.236Z,76736
2018-06-16T12:08:41.921Z,76928
2018-06-16T12:09:42.854Z,72512
2018-06-16T12:10:43.800Z,73792
2018-06-16T12:11:44.475Z,66560
2018-06-16T12:12:45.206Z,67136
2018-06-16T12:16:00.111Z,35136
2018-06-16T12:17:00.859Z,31520
2018-06-16T12:18:01.603Z,28096
2018-06-16T12:19:02.337Z,26144
2018-06-16T12:20:03.073Z,26336
2018-06-16T12:21:03.819Z,27808
2018-06-16T12:22:04.554Z,29056
2018-06-16T12:23:05.286Z,30048
2018-06-16T12:24:06.018Z,30144
2018-06-16T12:25:06.764Z,28576
2018-06-16T12:26:07.549Z,26624
2018-06-16T12:27:08.294Z,24064
2018-06-16T12:28:09.029Z,22848
2018-06-16T12:29:09.776Z,21728
2018-06-16T12:30:10.510Z,21760
2018-06-16T12:31:11.499Z,23712
2018-06-16T12:32:12.245Z,25920
2018-06-16T12:33:12.971Z,26944
2018-06-16T12:34:13.704Z,26528
2018-06-16T12:35:14.445Z,25952
2018-06-16T12:36:15.181Z,26528
2018-06-16T12:37:16.018Z,27936
2018-06-16T12:38:16.764Z,30848
2018-06-16T12:39:17.496Z,42432
2018-06-16T12:40:18.250Z,37440
2018-06-16T12:41:18.983Z,47104
2018-06-16T12:42:19.841Z,48704
2018-06-16T12:43:20.581Z,54400
2018-06-16T12:44:21.568Z,60160
2018-06-16T12:45:22.301Z,46112
2018-06-16T12:46:23.045Z,49472
2018-06-16T12:47:23.889Z,59872
2018-06-16T12:48:24.627Z,57792
2018-06-16T12:49:25.616Z,53728
2018-06-16T12:50:26.365Z,51520
2018-06-16T12:51:27.099Z,45408
2018-06-16T12:52:28.083Z,51264
2018-06-16T12:53:28.875Z,49856
2018-06-16T12:54:29.616Z,38144
2018-06-16T12:55:30.356Z,35648
2018-06-16T12:56:31.097Z,36448
2018-06-16T12:57:31.823Z,44928
2018-06-16T12:58:32.614Z,37024
2018-06-16T12:59:33.355Z,41792
2018-06-16T13:00:34.082Z,45824
2018-06-16T13:01:34.842Z,43392
2018-06-16T13:02:35.579Z,46176
2018-06-16T13:03:36.301Z,41216
2018-06-16T13:04:37.038Z,60896
2018-06-16T13:05:38.025Z,44864
2018-06-16T13:06:38.763Z,59328
2018-06-16T13:07:39.512Z,50144
2018-06-16T13:08:40.255Z,60928
2018-06-16T13:09:40.991Z,59680
2018-06-16T13:10:41.785Z,59936
2018-06-16T13:11:42.516Z,59200
2018-06-16T13:12:43.265Z,61536
2018-06-16T13:13:44.008Z,61184
2018-06-16T13:14:44.749Z,60288
2018-06-16T13:15:45.490Z,55488
2018-06-16T13:16:46.481Z,41152
2018-06-16T13:17:47.213Z,46560
2018-06-16T13:18:47.965Z,51424
2018-06-16T13:19:48.727Z,41984
2018-06-16T13:20:49.461Z,52704
2018-06-16T13:21:50.298Z,54816
2018-06-16T13:22:51.036Z,58304
2018-06-16T13:23:51.776Z,41760
2018-06-16T13:24:52.764Z,38208
2018-06-16T13:25:53.510Z,49792
2018-06-16T13:26:54.532Z,54592
2018-06-16T13:27:55.274Z,44608
2018-06-16T13:28:56.022Z,38656
2018-06-16T13:29:56.753Z,50624
2018-06-16T13:30:57.493Z,32064
2018-06-16T13:31:58.385Z,29920
2018-06-16T13:32:59.366Z,29824
2018-06-16T13:34:00.099Z,36320